createdAt,value
2022-10-01T00:01:17.166Z,4.55
2022-10-01T00:03:44.205Z,3.80
2022-10-01T00:06:17.741Z,3.80
2022-10-01T00:08:48.853Z,3.75
2022-10-01T00:11:21.166Z,6.35
2022-10-01T00:13:47.993Z,4.88
2022-10-01T00:16:26.652Z,4.07
2022-10-01T00:18:54.337Z,4.72
2022-10-01T00:21:27.371Z,7.15
2022-10-01T00:23:55.777Z,8.00
2022-10-01T00:26:27.232Z,5.30
2022-10-01T00:28:57.181Z,4.63
2022-10-01T00:31:25.053Z,5.30
2022-10-01T00:36:20.130Z,3.72
2022-10-01T00:38:47.973Z,3.30
2022-10-01T00:41:16.951Z,4.00
2022-10-01T00:43:49.865Z,4.35
2022-10-01T00:46:25.168Z,3.60
2022-10-01T00:49:01.075Z,8.18
2022-10-01T00:51:33.251Z,5.55
2022-10-01T00:54:10.407Z,5.32
2022-10-01T00:56:38.184Z,5.50
2022-10-01T00:59:06.236Z,3.28
2022-10-01T01:04:03.431Z,2.65
2022-10-01T01:06:30.205Z,4.50
2022-10-01T01:08:56.898Z,3.90
2022-10-01T01:11:40.063Z,2.65
2022-10-01T01:14:18.658Z,3.05
2022-10-01T01:17:08.599Z,2.58
2022-10-01T01:19:50.556Z,2.80
2022-10-01T01:22:21.663Z,3.78
2022-10-01T01:24:59.931Z,2.28
2022-10-01T01:27:46.321Z,2.25
2022-10-01T01:30:16.967Z,2.95
2022-10-01T01:33:03.226Z,3.85
2022-10-01T01:35:37.427Z,2.50
2022-10-01T01:38:15.248Z,1.77
2022-10-01T01:43:21.493Z,1.48
2022-10-01T01:45:50.751Z,1.80
2022-10-01T01:48:17.429Z,1.38
2022-10-01T01:50:52.419Z,1.05
2022-10-01T01:53:20.247Z,3.55
2022-10-01T01:55:49.373Z,3.47
2022-10-01T01:58:17.590Z,1.17
2022-10-01T02:00:45.764Z,2.67
2022-10-01T02:03:12.424Z,1.70
2022-10-01T02:05:47.206Z,0.82
2022-10-01T02:08:39.255Z,1.25
2022-10-01T02:11:32.395Z,0.95
2022-10-01T02:14:13.935Z,1.00
2022-10-01T02:17:01.439Z,1.65
2022-10-01T02:19:56.132Z,2.20
2022-10-01T02:22:43.822Z,1.60
2022-10-01T02:27:50.927Z,0.80
2022-10-01T02:30:18.197Z,1.40
2022-10-01T02:32:49.249Z,0.68
2022-10-01T02:35:18.855Z,0.70
2022-10-01T02:37:51.303Z,2.97
2022-10-01T02:40:26.237Z,0.90
2022-10-01T02:42:56.531Z,1.17
2022-10-01T02:45:26.259Z,0.50
2022-10-01T02:48:16.754Z,0.40
2022-10-01T02:50:50.059Z,0.77
2022-10-01T02:53:30.326Z,1.17
2022-10-01T02:55:58.391Z,0.25
2022-10-01T03:00:52.628Z,0.20
2022-10-01T03:03:19.276Z,0.43
2022-10-01T03:05:45.909Z,1.40
2022-10-01T03:08:12.517Z,0.60
2022-10-01T03:10:41.452Z,0.50
2022-10-01T03:13:10.101Z,0.50
2022-10-01T03:15:36.720Z,0.30
2022-10-01T03:18:03.505Z,0.30
2022-10-01T03:20:30.125Z,0.20
2022-10-01T03:22:56.774Z,1.13
2022-10-01T03:25:23.366Z,0.20
2022-10-01T03:27:52.328Z,0.20
2022-10-01T03:30:18.980Z,0.90
2022-10-01T03:32:45.558Z,1.08
2022-10-01T03:35:12.276Z,0.10
2022-10-01T03:37:38.921Z,0.95
2022-10-01T03:40:06.307Z,0.13
2022-10-01T03:42:32.877Z,0.73
2022-10-01T03:44:59.472Z,0.05
2022-10-01T03:47:26.168Z,0.40
2022-10-01T03:49:52.782Z,0.10
2022-10-01T03:52:19.801Z,0.30
2022-10-01T03:54:46.454Z,1.07
2022-10-01T03:57:13.117Z,0.20
2022-10-01T03:59:39.805Z,0.28
2022-10-01T04:02:07.680Z,0.10
2022-10-01T04:07:00.993Z,0.17
2022-10-01T04:09:27.559Z,0.57
2022-10-01T04:11:54.703Z,0.10
2022-10-01T04:14:21.317Z,0.50
2022-10-01T04:16:52.337Z,1.40
2022-10-01T04:19:19.770Z,0.60
2022-10-01T04:21:46.364Z,0.30
2022-10-01T04:24:12.979Z,0.65
2022-10-01T04:26:39.639Z,0.95
2022-10-01T04:29:06.336Z,0.40
2022-10-01T04:31:35.394Z,1.10
2022-10-01T04:34:03.350Z,0.50
2022-10-01T04:36:30.060Z,1.50
2022-10-01T04:39:01.651Z,0.60
2022-10-01T04:41:30.765Z,0.40
2022-10-01T04:43:59.912Z,2.47
2022-10-01T04:46:27.079Z,0.52
2022-10-01T04:48:53.690Z,3.03
2022-10-01T04:51:20.326Z,0.57
2022-10-01T04:53:47.069Z,2.53
2022-10-01T04:56:13.691Z,0.80
2022-10-01T04:58:41.326Z,1.08
2022-10-01T05:01:07.984Z,1.85
2022-10-01T05:03:34.682Z,1.55
2022-10-01T05:06:01.503Z,2.72
2022-10-01T05:08:28.705Z,1.10
2022-10-01T05:10:55.302Z,1.85
2022-10-01T05:13:21.912Z,2.00
2022-10-01T05:15:52.248Z,1.23
2022-10-01T05:18:19.144Z,1.55
2022-10-01T05:20:45.899Z,0.90
2022-10-01T05:23:12.487Z,2.55
2022-10-01T05:25:39.073Z,2.88
2022-10-01T05:28:05.931Z,0.60
2022-10-01T05:30:33.872Z,0.77
2022-10-01T05:33:02.438Z,3.40
2022-10-01T05:35:29.705Z,0.90
2022-10-01T05:38:01.645Z,1.33
2022-10-01T05:40:29.275Z,1.30
2022-10-01T05:42:58.347Z,1.10
2022-10-01T05:45:26.897Z,3.08
2022-10-01T05:48:07.527Z,4.70
2022-10-01T05:50:39.193Z,2.85
2022-10-01T05:53:07.753Z,2.20
2022-10-01T05:55:34.782Z,2.33
2022-10-01T05:58:06.903Z,3.83
2022-10-01T06:00:34.501Z,3.53
2022-10-01T06:03:02.577Z,3.50
2022-10-01T06:05:31.213Z,4.95
2022-10-01T06:07:58.100Z,2.60
2022-10-01T06:10:25.284Z,2.72
2022-10-01T06:12:51.999Z,3.55
2022-10-01T06:15:18.941Z,7.65
2022-10-01T06:17:45.621Z,4.22
2022-10-01T06:20:17.268Z,2.90
2022-10-01T06:22:44.109Z,7.35
2022-10-01T06:25:15.647Z,5.15
2022-10-01T06:27:42.310Z,4.90
2022-10-01T06:30:09.636Z,3.80
2022-10-01T06:32:36.595Z,2.70
2022-10-01T06:35:03.900Z,3.60
2022-10-01T06:37:30.483Z,3.45
2022-10-01T06:39:57.151Z,2.53
2022-10-01T06:42:23.791Z,3.65
2022-10-01T06:44:50.405Z,3.35
2022-10-01T06:47:17.001Z,4.88
2022-10-01T06:49:47.286Z,8.15
2022-10-01T06:52:33.459Z,9.93
2022-10-01T06:55:01.480Z,3.70
2022-10-01T06:57:29.029Z,9.32
2022-10-01T06:59:55.917Z,5.10
2022-10-01T07:02:30.579Z,4.40
2022-10-01T07:04:59.083Z,3.95
2022-10-01T07:07:32.680Z,6.97
2022-10-01T07:09:59.567Z,5.63
2022-10-01T07:12:26.695Z,4.15
2022-10-01T07:14:54.565Z,9.00
2022-10-01T07:17:22.144Z,3.55
2022-10-01T07:19:48.784Z,6.43
2022-10-01T07:22:15.498Z,7.60
2022-10-01T07:24:42.089Z,6.88
2022-10-01T07:27:08.750Z,5.00
2022-10-01T07:29:35.358Z,6.95
2022-10-01T07:32:04.109Z,4.93
2022-10-01T07:34:33.586Z,4.25
2022-10-01T07:37:00.212Z,2.28
2022-10-01T07:39:26.973Z,5.45
2022-10-01T07:41:53.627Z,4.30
2022-10-01T07:44:20.441Z,3.38
2022-10-01T07:46:48.389Z,3.35
2022-10-01T07:51:43.946Z,4.43
2022-10-01T07:54:11.426Z,4.53
2022-10-01T07:56:38.545Z,6.47
2022-10-01T07:59:05.530Z,4.45
2022-10-01T08:01:33.137Z,4.83
2022-10-01T08:04:00.198Z,2.60
2022-10-01T08:06:26.955Z,3.60
2022-10-01T08:08:53.627Z,7.00
2022-10-01T08:11:20.265Z,9.90
2022-10-01T08:13:47.489Z,9.85
2022-10-01T08:16:14.208Z,9.35
2022-10-01T08:18:40.905Z,12.38
2022-10-01T08:21:08.389Z,10.63
2022-10-01T08:23:35.134Z,8.85
2022-10-01T08:26:05.169Z,11.02
2022-10-01T08:28:31.904Z,18.15
2022-10-01T08:30:58.553Z,10.18
2022-10-01T08:33:25.181Z,10.88
2022-10-01T08:35:51.793Z,13.85
2022-10-01T08:38:19.762Z,14.07
2022-10-01T08:43:33.784Z,18.88
2022-10-01T08:46:04.639Z,4.65
2022-10-01T08:48:58.837Z,13.27
2022-10-01T08:51:33.015Z,8.25
2022-10-01T08:54:07.584Z,14.15
2022-10-01T08:56:44.402Z,16.75
2022-10-01T08:59:30.136Z,18.30
2022-10-01T09:01:57.169Z,20.08
2022-10-01T09:04:24.198Z,10.83
2022-10-01T09:07:09.353Z,9.53
2022-10-01T09:10:04.949Z,9.60
2022-10-01T09:12:51.632Z,2.08
2022-10-01T09:15:34.233Z,7.83
2022-10-01T09:18:19.653Z,8.18
2022-10-01T09:20:53.642Z,10.23
2022-10-01T09:23:20.274Z,5.90
2022-10-01T09:25:53.291Z,10.68
2022-10-01T09:28:23.109Z,12.52
2022-10-01T09:31:30.705Z,7.88
2022-10-01T09:34:09.145Z,11.85
2022-10-01T09:36:35.783Z,12.68
2022-10-01T09:39:10.162Z,13.07
2022-10-01T09:41:37.165Z,10.48
2022-10-01T09:44:04.443Z,12.25
2022-10-01T09:46:31.513Z,10.52
2022-10-01T09:49:12.937Z,14.00
2022-10-01T09:51:47.878Z,22.02
2022-10-01T09:54:39.373Z,10.38
2022-10-01T09:57:14.747Z,13.07
2022-10-01T10:00:16.135Z,10.93
2022-10-01T10:02:49.327Z,25.33
2022-10-01T10:05:16.261Z,17.95
2022-10-01T10:07:46.750Z,11.77
2022-10-01T10:10:16.481Z,13.15
2022-10-01T10:12:44.134Z,13.98
2022-10-01T10:15:17.057Z,8.07
2022-10-01T10:17:49.137Z,9.50
2022-10-01T10:20:29.694Z,18.88
2022-10-01T10:23:07.686Z,15.30
2022-10-01T10:25:34.888Z,9.32
2022-10-01T10:28:02.490Z,8.98
2022-10-01T10:30:29.891Z,14.07
2022-10-01T10:33:05.654Z,14.20
2022-10-01T10:35:32.451Z,10.52
2022-10-01T10:37:59.303Z,13.25
2022-10-01T10:40:31.107Z,13.85
2022-10-01T10:42:59.138Z,15.45
2022-10-01T10:45:33.977Z,14.73
2022-10-01T10:48:03.989Z,7.50
2022-10-01T10:50:36.039Z,11.02
2022-10-01T10:53:24.183Z,8.75
2022-10-01T10:56:04.374Z,17.48
2022-10-01T10:58:40.339Z,6.80
2022-10-01T11:01:13.163Z,10.15
2022-10-01T11:03:48.467Z,9.93
2022-10-01T11:06:18.679Z,10.57
2022-10-01T11:08:57.205Z,12.13
2022-10-01T11:11:42.660Z,9.57
2022-10-01T11:14:27.491Z,5.80
2022-10-01T11:17:12.972Z,6.03
2022-10-01T11:19:47.282Z,14.00
2022-10-01T11:22:19.836Z,10.07
2022-10-01T11:25:14.711Z,9.75
2022-10-01T11:27:56.591Z,13.00
2022-10-01T11:30:26.456Z,11.93
2022-10-01T11:32:56.034Z,11.02
2022-10-01T11:35:37.238Z,12.65
2022-10-01T11:38:35.193Z,8.95
2022-10-01T11:41:19.832Z,21.63
2022-10-01T11:43:53.267Z,28.10
2022-10-01T11:46:32.543Z,11.40
2022-10-01T11:49:08.488Z,16.50
2022-10-01T11:51:43.469Z,13.30
2022-10-01T11:54:15.241Z,9.95
2022-10-01T11:57:11.442Z,13.60
2022-10-01T12:00:12.959Z,11.13
2022-10-01T12:03:01.244Z,14.73
2022-10-01T12:05:32.002Z,12.73
2022-10-01T12:08:34.049Z,15.15
2022-10-01T12:11:16.248Z,3.85
2022-10-01T12:13:55.167Z,7.88
2022-10-01T12:16:40.543Z,8.77
2022-10-01T12:19:34.702Z,9.40
2022-10-01T12:22:15.487Z,6.38
2022-10-01T12:24:44.426Z,9.77
2022-10-01T12:27:37.381Z,14.18
2022-10-01T12:30:21.731Z,9.75
2022-10-01T12:33:00.684Z,8.40
2022-10-01T12:35:39.762Z,6.40
2022-10-01T12:38:28.195Z,10.52
2022-10-01T12:41:23.163Z,14.00
2022-10-01T12:44:19.274Z,8.48
2022-10-01T12:47:35.218Z,12.63
2022-10-01T12:50:35.244Z,8.75
2022-10-01T12:53:43.648Z,5.82
2022-10-01T12:56:30.047Z,9.85
2022-10-01T12:59:12.328Z,7.32
2022-10-01T13:02:35.006Z,4.65
2022-10-01T13:05:05.069Z,15.13
2022-10-01T13:07:47.695Z,5.28
2022-10-01T13:10:32.307Z,10.68
2022-10-01T13:13:08.982Z,10.15
2022-10-01T13:15:43.022Z,7.97
2022-10-01T13:18:37.230Z,10.88
2022-10-01T13:21:18.480Z,9.55
2022-10-01T13:24:00.422Z,8.13
2022-10-01T13:26:41.554Z,7.20
2022-10-01T13:29:38.309Z,7.75
2022-10-01T13:32:27.188Z,7.95
2022-10-01T13:34:55.717Z,10.85
2022-10-01T13:37:39.861Z,9.52
2022-10-01T13:40:31.087Z,8.70
2022-10-01T13:43:12.708Z,10.38
2022-10-01T13:45:42.989Z,12.18
2022-10-01T13:48:25.922Z,9.98
2022-10-01T13:51:11.650Z,5.55
2022-10-01T13:53:49.997Z,12.45
2022-10-01T13:56:36.915Z,7.72
2022-10-01T13:59:18.750Z,6.85
2022-10-01T14:01:45.458Z,9.18
2022-10-01T14:04:22.496Z,12.75
2022-10-01T14:06:53.650Z,8.50
2022-10-01T14:09:27.292Z,4.38
2022-10-01T14:12:17.642Z,6.95
2022-10-01T14:15:13.972Z,7.18
2022-10-01T14:17:43.159Z,10.33
2022-10-01T14:20:18.409Z,12.15
2022-10-01T14:23:05.488Z,5.28
2022-10-01T14:25:41.247Z,9.77
2022-10-01T14:28:13.848Z,13.55
2022-10-01T14:30:58.612Z,8.55
2022-10-01T14:33:50.093Z,9.30
2022-10-01T14:36:37.518Z,4.88
2022-10-01T14:39:26.075Z,9.02
2022-10-01T14:41:54.648Z,8.95
2022-10-01T14:44:28.731Z,11.57
2022-10-01T14:46:57.985Z,15.65
2022-10-01T14:49:29.983Z,8.23
2022-10-01T14:52:01.637Z,9.68
2022-10-01T14:54:30.128Z,7.57
2022-10-01T14:56:57.144Z,10.90
2022-10-01T14:59:35.008Z,9.47
2022-10-01T15:02:11.754Z,11.88
2022-10-01T15:04:46.190Z,8.15
2022-10-01T15:07:16.777Z,8.27
2022-10-01T15:09:44.874Z,9.73
2022-10-01T15:12:13.750Z,14.25
2022-10-01T15:14:42.564Z,10.38
2022-10-01T15:17:20.692Z,12.75
2022-10-01T15:19:52.129Z,20.90
2022-10-01T15:22:26.258Z,6.53
2022-10-01T15:24:57.821Z,15.38
2022-10-01T15:27:26.018Z,15.35
2022-10-01T15:29:56.655Z,14.60
2022-10-01T15:32:25.440Z,11.57
2022-10-01T15:34:56.040Z,13.45
2022-10-01T15:37:29.691Z,8.77
2022-10-01T15:39:57.558Z,8.18
2022-10-01T15:45:06.802Z,20.50
2022-10-01T15:47:38.136Z,11.52
2022-10-01T15:50:10.580Z,11.43
2022-10-01T15:52:50.843Z,11.98
2022-10-01T15:55:26.300Z,17.77
2022-10-01T15:58:16.300Z,9.32
2022-10-01T16:00:57.701Z,23.35
2022-10-01T16:03:29.267Z,17.98
2022-10-01T16:05:56.445Z,17.45
2022-10-01T16:08:26.464Z,24.20
2022-10-01T16:11:08.339Z,20.85
2022-10-01T16:13:44.939Z,36.38
2022-10-01T16:16:14.405Z,12.88
2022-10-01T16:18:41.843Z,11.50
2022-10-01T16:21:10.494Z,9.00
2022-10-01T16:23:40.182Z,10.32
2022-10-01T16:26:29.889Z,6.55
2022-10-01T16:29:18.464Z,13.98
2022-10-01T16:31:45.822Z,10.23
2022-10-01T16:34:14.780Z,10.25
2022-10-01T16:36:41.926Z,12.20
2022-10-01T16:39:08.828Z,8.60
2022-10-01T16:41:36.052Z,11.57
2022-10-01T16:44:05.145Z,11.85
2022-10-01T16:46:32.919Z,6.43
2022-10-01T16:51:27.090Z,6.70
2022-10-01T16:53:55.015Z,12.63
2022-10-01T16:58:53.805Z,9.98
2022-10-01T17:01:20.539Z,12.27
2022-10-01T17:03:47.199Z,10.63
2022-10-01T17:06:13.907Z,10.38
2022-10-01T17:08:40.477Z,13.55
2022-10-01T17:11:11.906Z,12.85
2022-10-01T17:13:39.238Z,10.15
2022-10-01T17:16:06.634Z,13.60
2022-10-01T17:18:33.573Z,13.52
2022-10-01T17:21:03.499Z,9.70
2022-10-01T17:23:30.167Z,12.60
2022-10-01T17:25:56.821Z,15.88
2022-10-01T17:28:24.398Z,15.27
2022-10-01T17:30:51.161Z,9.63
2022-10-01T17:33:19.429Z,11.65
2022-10-01T17:35:51.673Z,15.38
2022-10-01T17:38:19.281Z,9.80
2022-10-01T17:40:46.478Z,10.75
2022-10-01T17:43:17.278Z,12.83
2022-10-01T17:45:48.454Z,10.65
2022-10-01T17:48:17.904Z,9.75
2022-10-01T17:50:46.546Z,13.48
2022-10-01T17:53:14.620Z,11.20
2022-10-01T17:55:42.380Z,17.30
2022-10-01T17:58:10.281Z,11.43
2022-10-01T18:03:04.444Z,9.90
2022-10-01T18:05:31.227Z,16.58
2022-10-01T18:07:57.871Z,25.65
2022-10-01T18:10:24.545Z,12.65
2022-10-01T18:12:51.217Z,16.52
2022-10-01T18:15:20.745Z,19.50
2022-10-01T18:17:51.993Z,8.85
2022-10-01T18:20:22.976Z,29.92
2022-10-01T18:22:50.438Z,11.80
2022-10-01T18:25:19.251Z,17.02
2022-10-01T18:27:50.082Z,12.20
2022-10-01T18:30:17.392Z,22.13
2022-10-01T18:32:48.332Z,7.35
2022-10-01T18:35:43.746Z,11.80
2022-10-01T18:38:27.840Z,16.20
2022-10-01T18:40:59.807Z,9.02
2022-10-01T18:43:26.522Z,10.57
2022-10-01T18:46:10.917Z,13.77
2022-10-01T18:48:54.874Z,9.95
2022-10-01T18:51:52.425Z,14.75
2022-10-01T18:57:09.746Z,14.50
2022-10-01T19:00:04.080Z,25.90
2022-10-01T19:03:01.638Z,13.77
2022-10-01T19:05:40.545Z,9.27
2022-10-01T19:08:37.793Z,11.88
2022-10-01T19:11:18.202Z,12.23
2022-10-01T19:14:28.773Z,11.65
2022-10-01T19:17:15.241Z,15.65
2022-10-01T19:19:53.603Z,13.27
2022-10-01T19:22:33.959Z,10.68
2022-10-01T19:25:22.200Z,9.25
2022-10-01T19:28:19.201Z,17.65
2022-10-01T19:31:04.363Z,13.45
2022-10-01T19:33:37.294Z,8.77
2022-10-01T19:36:06.703Z,8.52
2022-10-01T19:38:41.077Z,13.70
2022-10-01T19:41:20.629Z,9.80
2022-10-01T19:43:56.506Z,15.10
2022-10-01T19:46:32.175Z,11.45
2022-10-01T19:49:08.541Z,9.27
2022-10-01T19:51:46.166Z,16.20
2022-10-01T19:54:21.137Z,18.38
2022-10-01T19:57:00.957Z,13.15
2022-10-01T19:59:28.843Z,14.10
2022-10-01T20:04:36.232Z,13.80
2022-10-01T20:07:21.508Z,8.40
2022-10-01T20:10:04.463Z,26.95
2022-10-01T20:12:48.923Z,10.07
2022-10-01T20:15:40.198Z,10.77
2022-10-01T20:18:27.654Z,9.55
2022-10-01T20:21:16.433Z,9.13
2022-10-01T20:23:46.875Z,13.52
2022-10-01T20:26:31.034Z,10.05
2022-10-01T20:29:15.863Z,13.65
2022-10-01T20:31:57.609Z,21.75
2022-10-01T20:34:40.399Z,17.02
2022-10-01T20:37:43.543Z,16.50
2022-10-01T20:40:18.276Z,13.05
2022-10-01T20:42:49.167Z,13.60
2022-10-01T20:45:23.209Z,11.13
2022-10-01T20:48:16.445Z,11.65
2022-10-01T20:50:51.034Z,13.48
2022-10-01T20:53:32.356Z,12.13
2022-10-01T20:56:04.320Z,17.15
2022-10-01T20:58:35.828Z,13.82
2022-10-01T21:01:16.883Z,11.02
2022-10-01T21:04:06.081Z,13.60
2022-10-01T21:06:45.780Z,15.25
2022-10-01T21:09:29.937Z,9.82
2022-10-01T21:12:08.719Z,7.50
2022-10-01T21:14:37.967Z,20.55
2022-10-01T21:17:22.574Z,14.50
2022-10-01T21:20:09.476Z,13.38
2022-10-01T21:22:45.811Z,11.18
2022-10-01T21:25:21.391Z,18.23
2022-10-01T21:28:06.243Z,14.70
2022-10-01T21:31:02.361Z,14.57
2022-10-01T21:33:34.777Z,15.40
2022-10-01T21:36:15.888Z,17.83
2022-10-01T21:38:45.560Z,19.60
2022-10-01T21:41:48.167Z,13.50
2022-10-01T21:44:33.295Z,17.48
2022-10-01T21:47:19.030Z,24.85
2022-10-01T21:50:11.213Z,16.23
2022-10-01T21:53:04.132Z,21.85
2022-10-01T21:56:00.642Z,11.52
2022-10-01T21:58:39.549Z,25.52
2022-10-01T22:01:35.222Z,20.33
2022-10-01T22:04:01.852Z,11.50
2022-10-01T22:06:45.756Z,15.48
2022-10-01T22:09:38.894Z,13.70
2022-10-01T22:12:07.315Z,13.15
2022-10-01T22:14:34.188Z,18.92
2022-10-01T22:17:17.680Z,18.48
2022-10-01T22:19:48.558Z,18.55
2022-10-01T22:22:22.341Z,12.27
2022-10-01T22:24:54.528Z,23.35
2022-10-01T22:27:31.989Z,21.30
2022-10-01T22:30:00.639Z,22.48
2022-10-01T22:32:33.366Z,25.38
2022-10-01T22:35:04.789Z,17.70
2022-10-01T22:37:37.567Z,13.20
2022-10-01T22:40:18.309Z,17.25
2022-10-01T22:42:55.258Z,22.63
2022-10-01T22:45:37.384Z,25.08
2022-10-01T22:48:22.498Z,21.23
2022-10-01T22:51:04.531Z,25.65
2022-10-01T22:53:31.094Z,14.15
2022-10-01T22:55:58.044Z,17.63
2022-10-01T22:58:46.431Z,19.63
2022-10-01T23:01:35.187Z,23.02
2022-10-01T23:04:31.906Z,18.23
2022-10-01T23:07:33.972Z,23.92
2022-10-01T23:10:06.248Z,27.85
2022-10-01T23:12:44.686Z,20.95
2022-10-01T23:15:20.162Z,23.75
2022-10-01T23:18:16.968Z,26.60
2022-10-01T23:21:24.742Z,25.80
2022-10-01T23:23:58.765Z,22.35
2022-10-01T23:26:46.963Z,21.08
2022-10-01T23:29:22.369Z,28.25
2022-10-01T23:32:12.064Z,18.35
2022-10-01T23:34:57.237Z,21.05
2022-10-01T23:37:49.984Z,31.13
2022-10-01T23:40:20.630Z,21.67
2022-10-01T23:43:06.533Z,14.98
2022-10-01T23:45:42.942Z,31.83
2022-10-01T23:48:25.453Z,25.08
2022-10-01T23:51:01.264Z,26.25
2022-10-01T23:53:55.114Z,23.08
2022-10-01T23:56:45.656Z,22.88
2022-10-01T23:59:36.522Z,8.77
